Time;durP1;ratioP1;P1;durP2;ratioP2;P2;SDS_P1;SDS_P2;PMS_P1;PMS_P2;Temp;Humidity;BMP_temperature;BMP_pressure;BME280_temperature;BME280_humidity;BME280_pressure;Samples;Min_cycle;Max_cycle;Signal;HPM_P1;HPM_P2
2023/02/02 00:01:46;;;;;;;7.95;2.10;;;;;;;18.93;41.60;102076.97;4991498;28;20145;-68
2023/02/02 00:04:17;;;;;;;6.40;2.15;;;;;;;18.92;41.61;102080.59;4991814;28;20038;-69
2023/02/02 00:06:42;;;;;;;7.65;1.98;;;;;;;18.89;41.49;102078.16;4992521;28;20089;-69
2023/02/02 00:09:09;;;;;;;7.30;2.28;;;;;;;18.83;41.45;102067.00;4991231;28;20097;-69
2023/02/02 00:11:35;;;;;;;9.38;2.10;;;;;;;18.84;41.40;102055.50;4992117;28;20049;-68
2023/02/02 00:14:00;;;;;;;8.40;2.37;;;;;;;18.88;41.40;102068.53;5006437;28;20042;-68
2023/02/02 00:16:25;;;;;;;5.88;2.50;;;;;;;18.87;41.48;102072.09;4991678;28;20405;-69
2023/02/02 00:18:56;;;;;;;7.53;2.10;;;;;;;18.85;41.52;102072.22;4992546;28;20048;-70
2023/02/02 00:21:22;;;;;;;6.47;1.80;;;;;;;18.84;41.07;102068.72;4991770;28;20394;-69
2023/02/02 00:23:48;;;;;;;6.22;2.00;;;;;;;18.82;41.29;102067.94;4992089;28;20038;-68
2023/02/02 00:26:13;;;;;;;6.90;1.98;;;;;;;18.82;41.21;102067.94;4991583;28;20533;-69
2023/02/02 00:28:39;;;;;;;7.68;2.10;;;;;;;18.80;41.10;102074.25;4998838;28;20040;-68
2023/02/02 00:31:04;;;;;;;7.07;1.80;;;;;;;18.79;41.17;102065.50;4992275;28;20041;-69
2023/02/02 00:33:29;;;;;;;8.55;2.00;;;;;;;18.80;41.12;102072.50;4992183;28;20478;-68
2023/02/02 00:35:54;;;;;;;8.13;2.13;;;;;;;18.78;41.01;102074.38;4991727;28;20121;-68
2023/02/02 00:38:20;;;;;;;7.55;2.20;;;;;;;18.76;40.95;102076.25;4992223;28;20030;-70
2023/02/02 00:40:45;;;;;;;6.85;2.05;;;;;;;18.75;41.08;102071.91;4990970;28;20046;-69
2023/02/02 00:43:10;;;;;;;9.80;2.60;;;;;;;18.74;40.61;102075.53;4992105;28;20398;-69
2023/02/02 00:45:37;;;;;;;8.00;2.50;;;;;;;18.75;40.84;102085.13;4990860;28;20037;-68
2023/02/02 00:48:03;;;;;;;8.80;1.83;;;;;;;18.75;40.88;102090.41;4991835;28;20499;-69
2023/02/02 00:50:28;;;;;;;8.20;2.03;;;;;;;18.75;40.81;102089.56;4991343;28;20049;-68
2023/02/02 00:52:53;;;;;;;11.05;2.60;;;;;;;18.70;40.83;102081.94;4991011;28;20033;-68
2023/02/02 00:55:19;;;;;;;8.05;2.47;;;;;;;18.73;40.92;102083.53;4991526;28;20037;-69
2023/02/02 00:57:45;;;;;;;9.27;2.10;;;;;;;18.71;40.88;102086.28;4990953;28;20048;-69
2023/02/02 01:00:22;;;;;;;6.25;1.80;;;;;;;18.70;40.77;102081.09;4991475;28;20030;-70
2023/02/02 01:02:52;;;;;;;8.07;1.90;;;;;;;18.65;40.59;102079.59;4990885;28;20450;-69
2023/02/02 01:05:17;;;;;;;6.82;1.75;;;;;;;18.67;40.76;102088.28;4991515;28;20112;-69
2023/02/02 01:07:43;;;;;;;7.85;2.10;;;;;;;18.66;40.81;102086.56;4991614;28;21097;-69
2023/02/02 01:10:16;;;;;;;9.20;2.30;;;;;;;18.63;40.67;102078.00;4991199;28;20550;-70
2023/02/02 01:12:42;;;;;;;7.95;1.90;;;;;;;18.65;40.54;102084.88;4991205;28;20144;-69
2023/02/02 01:15:11;;;;;;;7.70;2.40;;;;;;;18.63;40.54;102092.03;4992344;28;20518;-68
2023/02/02 01:17:36;;;;;;;9.20;2.50;;;;;;;18.60;40.49;102084.31;4994984;28;20487;-69
2023/02/02 01:20:02;;;;;;;7.22;2.13;;;;;;;18.59;40.65;102085.25;4994463;28;20038;-69
2023/02/02 01:22:28;;;;;;;6.28;1.98;;;;;;;18.58;40.65;102074.78;4994220;28;20040;-68
2023/02/02 01:24:53;;;;;;;7.13;2.10;;;;;;;18.58;40.69;102078.31;4994581;28;20390;-69
2023/02/02 01:27:18;;;;;;;7.67;2.27;;;;;;;18.59;40.20;102073.84;4995024;28;20379;-69
2023/02/02 01:29:43;;;;;;;6.57;1.95;;;;;;;18.57;40.60;102078.41;4994740;28;20272;-69
2023/02/02 01:32:10;;;;;;;8.82;2.40;;;;;;;18.59;40.56;102076.50;4994171;28;20054;-70
2023/02/02 01:34:35;;;;;;;7.53;2.00;;;;;;;18.58;40.35;102088.88;4994578;28;20042;-70
2023/02/02 01:37:00;;;;;;;9.07;2.53;;;;;;;18.54;40.45;102087.34;4993907;28;20049;-69
2023/02/02 01:39:26;;;;;;;8.18;2.17;;;;;;;18.58;40.67;102086.22;4993741;28;20541;-69
2023/02/02 01:41:51;;;;;;;8.90;2.40;;;;;;;18.57;40.74;102086.31;4993970;28;20029;-69
2023/02/02 01:44:54;;;;;;;7.38;2.00;;;;;;;18.58;40.78;102093.28;4994205;28;20057;-69
2023/02/02 01:47:23;;;;;;;9.65;2.15;;;;;;;18.56;40.54;102082.81;4994294;28;20034;-70
2023/02/02 01:49:49;;;;;;;7.20;2.00;;;;;;;18.56;40.57;102084.59;4994691;28;20489;-69
2023/02/02 01:52:18;;;;;;;6.78;2.00;;;;;;;18.54;40.47;102073.31;4993847;28;20121;-69
2023/02/02 01:54:50;;;;;;;7.80;2.38;;;;;;;18.52;40.53;102078.69;4994203;28;20044;-69
2023/02/02 01:57:29;;;;;;;7.22;2.28;;;;;;;18.51;40.33;102079.63;4993825;28;20172;-69
2023/02/02 01:59:57;;;;;;;6.78;2.00;;;;;;;18.52;40.33;102081.31;4993886;28;20341;-68
2023/02/02 02:02:26;;;;;;;7.43;2.15;;;;;;;18.53;40.34;102088.28;4993948;28;20033;-69
2023/02/02 02:04:52;;;;;;;7.53;2.22;;;;;;;18.53;40.29;102079.53;4993713;28;20034;-68
2023/02/02 02:07:18;;;;;;;4.80;1.77;;;;;;;18.48;40.33;102080.69;4993972;28;20554;-68
2023/02/02 02:09:43;;;;;;;6.85;2.17;;;;;;;18.49;40.29;102077.06;4994565;28;20041;-69
2023/02/02 02:12:14;;;;;;;8.52;2.13;;;;;;;18.50;40.25;102083.22;4993656;28;20054;-69
2023/02/02 02:17:44;;;;;;;9.40;2.47;;;;;;;18.49;40.50;102079.72;4993480;28;20125;-68
2023/02/02 02:26:34;;;;;;;7.18;2.20;;;;;;;18.47;40.18;102080.78;4992559;28;20085;-68
2023/02/02 02:29:39;;;;;;;6.97;2.10;;;;;;;18.47;40.13;102101.91;4993372;28;20429;-69
2023/02/02 02:33:15;;;;;;;6.43;2.00;;;;;;;18.46;40.17;102085.19;4993307;28;20096;-69
2023/02/02 02:35:53;;;;;;;7.68;1.75;;;;;;;18.44;40.16;102088.88;4924930;28;20047;-69
2023/02/02 02:38:38;;;;;;;6.57;1.90;;;;;;;18.42;40.38;102088.97;4992972;28;20053;-69
2023/02/02 02:41:11;;;;;;;7.30;1.70;;;;;;;18.40;40.46;102088.22;4993664;28;20073;-68
2023/02/02 02:44:07;;;;;;;8.80;2.30;;;;;;;18.44;40.22;102089.72;4993521;28;20056;-69
2023/02/02 02:46:33;;;;;;;9.60;2.40;;;;;;;18.42;40.16;102090.75;4993096;28;20517;-67
2023/02/02 02:49:00;;;;;;;8.25;2.03;;;;;;;18.38;40.30;102087.47;4992646;28;20042;-68
2023/02/02 02:51:48;;;;;;;7.63;2.03;;;;;;;18.40;40.24;102090.84;4991285;28;20058;-68
2023/02/02 02:54:28;;;;;;;6.60;2.13;;;;;;;18.37;40.35;102096.31;4992733;28;20029;-68
2023/02/02 02:57:09;;;;;;;6.10;1.80;;;;;;;18.40;40.35;102108.50;4992805;28;20034;-69
2023/02/02 02:59:55;;;;;;;6.63;1.80;;;;;;;18.39;40.32;102104.13;4992191;28;20038;-68
2023/02/02 03:02:34;;;;;;;7.57;2.30;;;;;;;18.36;40.27;102088.50;4993017;28;20038;-69
2023/02/02 03:05:15;;;;;;;8.90;2.25;;;;;;;18.39;40.29;102098.84;4992928;28;20049;-70
2023/02/02 03:08:09;;;;;;;6.55;1.90;;;;;;;18.38;40.06;102086.63;4992799;28;20060;-68
2023/02/02 03:10:37;;;;;;;8.18;2.42;;;;;;;18.34;40.13;102088.63;4992689;28;20511;-69
2023/02/02 03:13:07;;;;;;;10.02;2.40;;;;;;;18.34;40.09;102093.03;4990864;28;20052;-69
2023/02/02 03:15:32;;;;;;;8.70;2.22;;;;;;;18.37;40.12;102095.47;4992564;28;20026;-70
2023/02/02 03:17:57;;;;;;;7.82;1.98;;;;;;;18.36;40.09;102086.72;4992599;28;20038;-70
2023/02/02 03:20:23;;;;;;;6.90;2.10;;;;;;;18.32;40.21;102087.84;4992076;28;20065;-70
2023/02/02 03:22:48;;;;;;;7.13;2.00;;;;;;;18.35;40.15;102094.75;4992139;28;20037;-69
2023/02/02 03:25:15;;;;;;;6.60;2.00;;;;;;;18.34;39.89;102099.19;4992417;28;20065;-69
2023/02/02 03:27:40;;;;;;;7.10;2.13;;;;;;;18.33;40.04;102097.47;4992157;28;20030;-69
2023/02/02 03:30:08;;;;;;;8.18;2.40;;;;;;;18.28;40.23;102089.84;4992351;28;20042;-69
2023/02/02 03:32:34;;;;;;;7.25;2.55;;;;;;;18.29;40.16;102091.53;4991952;28;20049;-70
2023/02/02 03:35:00;;;;;;;7.80;2.22;;;;;;;18.29;39.99;102083.63;4992480;28;20065;-69
2023/02/02 03:37:25;;;;;;;8.07;2.30;;;;;;;18.29;40.11;102081.00;4992371;28;20048;-69
2023/02/02 03:39:51;;;;;;;7.20;2.42;;;;;;;18.30;39.96;102080.03;4992410;28;20088;-69
2023/02/02 03:42:16;;;;;;;8.25;2.13;;;;;;;18.29;40.27;102074.84;4992325;28;20092;-69
2023/02/02 03:44:41;;;;;;;8.57;2.33;;;;;;;18.27;40.01;102082.00;4992058;28;20565;-70
2023/02/02 03:47:07;;;;;;;8.80;1.88;;;;;;;18.26;40.05;102078.53;4991917;28;20058;-69
2023/02/02 03:49:32;;;;;;;5.72;1.65;;;;;;;18.24;40.14;102088.31;4992153;28;20497;-70
2023/02/02 03:51:57;;;;;;;7.67;1.90;;;;;;;18.28;40.14;102099.56;4991786;28;20030;-70
2023/02/02 03:54:22;;;;;;;7.43;2.15;;;;;;;18.24;39.91;102092.75;4991761;28;20334;-70
2023/02/02 03:56:48;;;;;;;6.18;1.77;;;;;;;18.25;40.21;102105.03;4991991;28;20058;-69
2023/02/02 03:59:13;;;;;;;7.47;2.22;;;;;;;18.24;40.25;102109.44;4991901;28;20041;-70
2023/02/02 04:01:38;;;;;;;8.15;1.95;;;;;;;18.27;40.03;102121.59;4991684;28;20026;-69
2023/02/02 04:04:03;;;;;;;7.40;1.90;;;;;;;18.26;40.10;102118.13;4998617;28;20034;-70
2023/02/02 04:06:29;;;;;;;7.18;2.38;;;;;;;18.26;39.97;102119.91;4991885;28;20048;-70
2023/02/02 04:08:54;;;;;;;5.75;1.50;;;;;;;18.26;39.91;102115.47;4992271;28;20099;-69
2023/02/02 04:11:20;;;;;;;7.93;2.30;;;;;;;18.24;39.92;102114.72;4992037;28;20053;-69
2023/02/02 04:13:45;;;;;;;8.32;2.30;;;;;;;18.21;40.09;102104.34;4991093;28;20420;-69
2023/02/02 04:16:11;;;;;;;7.05;2.17;;;;;;;18.24;40.13;102111.22;4991836;28;20049;-67
2023/02/02 04:18:36;;;;;;;6.75;1.90;;;;;;;18.24;40.20;102116.50;4991795;28;20035;-68
2023/02/02 04:21:03;;;;;;;7.13;1.67;;;;;;;18.22;40.00;102113.13;4991243;28;20026;-68
2023/02/02 04:23:29;;;;;;;8.80;2.33;;;;;;;18.22;39.94;102107.84;4991148;28;20037;-67
2023/02/02 04:25:55;;;;;;;8.00;2.00;;;;;;;18.20;40.07;102115.00;4991823;28;20031;-69
2023/02/02 04:28:21;;;;;;;9.23;2.22;;;;;;;18.19;39.84;102115.94;4991540;28;20065;-68
2023/02/02 04:30:46;;;;;;;9.07;2.15;;;;;;;18.19;39.90;102115.94;4990957;28;20653;-68
2023/02/02 04:33:11;;;;;;;7.25;1.95;;;;;;;18.18;40.08;102116.88;4991597;28;20542;-68
2023/02/02 04:35:37;;;;;;;7.83;2.17;;;;;;;18.20;39.95;102126.41;4990848;28;20042;-70
2023/02/02 04:38:02;;;;;;;9.48;2.10;;;;;;;18.17;40.09;102117.84;4992076;28;20277;-69
2023/02/02 04:40:27;;;;;;;7.18;2.38;;;;;;;18.17;40.11;102126.59;4990837;28;20161;-68
2023/02/02 04:42:53;;;;;;;7.85;2.33;;;;;;;18.17;39.95;102128.41;4991696;28;20030;-69
2023/02/02 04:45:18;;;;;;;6.88;1.88;;;;;;;18.20;40.05;102122.91;4991454;28;20034;-69
2023/02/02 04:47:43;;;;;;;6.15;1.85;;;;;;;18.16;40.06;102110.88;4991193;28;20085;-69
2023/02/02 04:50:10;;;;;;;7.90;1.97;;;;;;;18.18;39.95;102125.63;4992137;28;20038;-69
2023/02/02 04:52:36;;;;;;;7.60;2.17;;;;;;;18.15;39.94;102114.44;4995528;28;20753;-69
2023/02/02 04:55:01;;;;;;;5.90;2.00;;;;;;;18.15;39.85;102117.06;4995437;28;20061;-69
2023/02/02 04:57:27;;;;;;;9.00;2.40;;;;;;;18.15;39.98;102114.44;4994926;28;20027;-68
2023/02/02 04:59:52;;;;;;;7.22;1.75;;;;;;;18.15;40.05;102111.78;4995110;28;20129;-69
2023/02/02 05:02:18;;;;;;;7.15;2.03;;;;;;;18.16;39.98;102116.97;4995385;28;20043;-68
2023/02/02 05:04:43;;;;;;;6.80;1.63;;;;;;;18.16;39.92;102118.78;4995041;28;20056;-68
2023/02/02 05:07:09;;;;;;;7.95;1.85;;;;;;;18.16;39.89;102111.69;4995137;28;20386;-68
2023/02/02 05:09:34;;;;;;;5.93;1.92;;;;;;;18.12;40.12;102108.41;4994112;28;20508;-70
2023/02/02 05:11:59;;;;;;;5.65;1.73;;;;;;;18.12;40.09;102112.84;4994552;28;20044;-69
2023/02/02 05:14:24;;;;;;;8.20;1.95;;;;;;;18.12;39.98;102118.13;4994574;28;20076;-69
2023/02/02 05:16:50;;;;;;;8.48;2.05;;;;;;;18.13;40.05;102125.94;4994510;28;20037;-69
2023/02/02 05:19:15;;;;;;;5.80;1.70;;;;;;;18.13;40.01;102133.00;4994890;28;20030;-69
2023/02/02 05:21:43;;;;;;;5.43;1.55;;;;;;;18.11;39.85;102140.16;4994981;28;20603;-68
2023/02/02 05:24:09;;;;;;;7.63;2.03;;;;;;;18.10;39.93;102134.03;4994743;28;20038;-68
2023/02/02 05:26:34;;;;;;;8.50;1.95;;;;;;;18.12;40.18;102136.59;4994349;28;20038;-68
2023/02/02 05:29:00;;;;;;;7.25;1.90;;;;;;;18.12;39.93;102142.72;4994681;28;20904;-69
2023/02/02 05:31:25;;;;;;;8.05;2.13;;;;;;;18.09;40.09;102137.63;4994070;28;20038;-69
2023/02/02 05:33:50;;;;;;;7.68;2.00;;;;;;;18.08;39.95;102135.06;4994783;28;20104;-69
2023/02/02 05:36:15;;;;;;;7.75;2.13;;;;;;;18.12;39.98;102152.41;4993759;28;20030;-70
2023/02/02 05:38:41;;;;;;;8.07;2.20;;;;;;;18.09;39.87;102140.25;4994698;28;20482;-67
2023/02/02 05:41:06;;;;;;;6.43;1.55;;;;;;;18.04;39.85;102131.78;4993745;28;20045;-69
2023/02/02 05:43:32;;;;;;;7.40;1.95;;;;;;;18.08;40.16;102137.72;4993894;28;20037;-69
2023/02/02 05:45:57;;;;;;;8.25;2.22;;;;;;;18.09;40.26;102148.16;4993877;28;20037;-69
2023/02/02 05:48:23;;;;;;;7.20;2.15;;;;;;;18.07;40.09;102141.28;4994057;28;20148;-69
2023/02/02 05:51:15;;;;;;;5.88;1.90;;;;;;;18.05;40.12;102141.38;4994218;28;20038;-69
2023/02/02 05:53:43;;;;;;;6.38;1.92;;;;;;;18.08;40.24;102135.06;4994757;28;20034;-69
2023/02/02 05:56:08;;;;;;;8.30;1.83;;;;;;;18.09;40.01;102136.78;4993911;28;20041;-69
2023/02/02 05:58:33;;;;;;;7.33;2.00;;;;;;;18.11;40.29;102140.16;4993974;28;20029;-70
2023/02/02 06:00:58;;;;;;;6.93;2.08;;;;;;;18.11;40.30;102143.63;4993163;28;20294;-69
2023/02/02 06:03:24;;;;;;;6.60;1.73;;;;;;;18.17;40.42;102152.16;4993643;28;20546;-70
2023/02/02 06:05:49;;;;;;;8.48;1.98;;;;;;;18.17;40.24;102145.06;4993830;28;20275;-67
2023/02/02 06:08:15;;;;;;;6.18;1.80;;;;;;;18.20;40.55;102139.59;4993893;28;20542;-69
2023/02/02 06:10:41;;;;;;;6.25;1.98;;;;;;;18.28;40.32;102155.81;4993659;28;20045;-69
2023/02/02 06:13:07;;;;;;;4.95;1.70;;;;;;;18.32;40.24;102151.19;4993351;28;20390;-69
2023/02/02 06:15:33;;;;;;;5.32;1.50;;;;;;;18.34;40.43;102143.19;4993932;28;20034;-69
2023/02/02 06:17:59;;;;;;;5.28;1.60;;;;;;;18.38;40.32;102139.41;4993200;28;20084;-69
2023/02/02 06:20:24;;;;;;;6.60;1.60;;;;;;;18.41;40.03;102145.34;4993699;28;21347;-68
2023/02/02 06:22:49;;;;;;;4.50;1.80;;;;;;;18.47;40.11;102152.06;4993094;28;20092;-70
2023/02/02 06:25:14;;;;;;;6.55;1.80;;;;;;;18.50;40.22;102154.50;4993417;28;20514;-69
2023/02/02 06:27:40;;;;;;;7.30;1.50;;;;;;;18.48;40.36;102143.16;4993123;28;20084;-68
2023/02/02 06:30:06;;;;;;;4.72;1.77;;;;;;;18.54;40.26;102165.72;4999368;28;20501;-70
2023/02/02 06:32:31;;;;;;;7.20;2.03;;;;;;;18.55;40.09;102157.69;4994038;28;20041;-69
2023/02/02 06:34:57;;;;;;;6.15;1.73;;;;;;;18.56;40.23;102164.66;4993529;28;20845;-68
2023/02/02 06:37:22;;;;;;;5.60;1.70;;;;;;;18.59;40.30;102168.91;4993245;28;20038;-68
2023/02/02 06:39:48;;;;;;;6.60;1.98;;;;;;;18.59;40.15;102166.25;4999168;28;20066;-68
2023/02/02 06:42:13;;;;;;;5.83;1.67;;;;;;;18.60;40.61;102152.13;5008360;28;20045;-69
2023/02/02 06:44:38;;;;;;;6.95;1.63;;;;;;;18.59;40.94;102140.69;4993940;28;20271;-68
2023/02/02 06:47:04;;;;;;;6.73;1.87;;;;;;;18.66;40.99;102157.88;4992386;28;20034;-68
2023/02/02 06:49:29;;;;;;;7.75;1.85;;;;;;;18.71;40.79;102172.56;4993334;28;20280;-69
2023/02/02 06:51:54;;;;;;;5.88;1.40;;;;;;;18.76;40.85;102181.91;4992935;28;20081;-70
2023/02/02 06:54:19;;;;;;;6.23;1.70;;;;;;;18.77;40.98;102186.25;4993334;28;20520;-68
2023/02/02 06:56:45;;;;;;;8.82;2.28;;;;;;;18.81;41.11;102192.19;4992845;28;20348;-69
2023/02/02 06:59:10;;;;;;;4.65;1.40;;;;;;;18.83;41.15;102185.88;4993105;28;20053;-69
2023/02/02 07:01:35;;;;;;;6.13;1.70;;;;;;;18.85;41.18;102186.63;4992501;28;20034;-69
2023/02/02 07:04:00;;;;;;;7.78;2.17;;;;;;;18.87;41.32;102183.03;4998388;28;20272;-68
2023/02/02 07:06:27;;;;;;;5.43;1.70;;;;;;;18.88;41.65;102190.88;4993363;28;20481;-68
2023/02/02 07:08:54;;;;;;;6.57;1.95;;;;;;;18.86;41.64;102187.47;4992817;28;20125;-67
2023/02/02 07:11:19;;;;;;;8.68;1.70;;;;;;;18.89;41.82;102186.44;4999301;28;20441;-71
2023/02/02 07:13:46;;;;;;;11.27;1.85;;;;;;;18.95;42.01;102200.09;4992539;28;20517;-68
2023/02/02 07:16:13;;;;;;;7.97;1.85;;;;;;;18.97;42.00;102197.38;4992935;28;20038;-69
2023/02/02 07:18:39;;;;;;;6.70;1.88;;;;;;;19.02;42.06;102197.91;4992984;28;20034;-68
2023/02/02 07:21:05;;;;;;;7.35;2.22;;;;;;;19.03;42.03;102197.81;4992328;28;20030;-70
2023/02/02 07:23:32;;;;;;;6.53;2.08;;;;;;;19.05;41.95;102199.53;4992834;28;20067;-67
2023/02/02 07:26:06;;;;;;;12.05;2.05;;;;;;;19.05;41.72;102192.44;4992914;28;20073;-68
2023/02/02 07:28:32;;;;;;;5.68;1.60;;;;;;;19.07;41.67;102197.63;4992296;28;20038;-70
2023/02/02 07:30:57;;;;;;;8.98;1.98;;;;;;;19.05;41.77;102197.72;4992629;28;20050;-68
2023/02/02 07:33:23;;;;;;;7.88;2.08;;;;;;;19.09;42.06;102195.72;4991913;28;20037;-68
2023/02/02 07:35:48;;;;;;;7.38;1.77;;;;;;;19.03;42.27;102189.06;4992258;28;20030;-68
2023/02/02 07:38:14;;;;;;;7.55;1.55;;;;;;;19.09;42.37;102198.38;4991110;28;20401;-66
2023/02/02 07:40:39;;;;;;;8.60;1.90;;;;;;;19.09;42.28;102195.72;4992650;28;20030;-68
2023/02/02 07:43:04;;;;;;;11.55;2.97;;;;;;;19.12;42.08;102203.47;4991919;28;20030;-68
2023/02/02 07:45:30;;;;;;;8.73;2.00;;;;;;;19.12;42.14;102200.81;4992254;28;20030;-67
2023/02/02 07:47:59;;;;;;;13.60;2.80;;;;;;;19.10;42.21;102200.91;4991490;28;20041;-68
2023/02/02 07:50:25;;;;;;;9.32;1.95;;;;;;;19.15;42.09;102208.56;4992688;28;20410;-68
2023/02/02 07:52:51;;;;;;;9.13;1.80;;;;;;;19.12;42.24;102209.63;4991297;28;20433;-71
2023/02/02 07:55:16;;;;;;;11.10;2.22;;;;;;;19.14;42.19;102209.50;4992001;28;20030;-73
2023/02/02 07:57:42;;;;;;;10.20;1.92;;;;;;;19.12;42.37;102204.31;4994125;28;20497;-67
2023/02/02 08:00:08;;;;;;;8.45;1.58;;;;;;;19.16;42.44;102212.91;4992745;28;20083;-69
2023/02/02 08:02:34;;;;;;;6.95;1.67;;;;;;;19.20;42.10;102219.66;4991549;28;20026;-72
2023/02/02 08:04:59;;;;;;;7.70;2.33;;;;;;;19.17;42.04;102217.25;4992900;28;20493;-70
2023/02/02 08:07:24;;;;;;;8.85;2.00;;;;;;;19.18;42.07;102224.22;4992292;28;20136;-70
2023/02/02 08:09:50;;;;;;;9.53;2.27;;;;;;;19.13;42.39;102216.56;4991957;28;20509;-69
2023/02/02 08:12:16;;;;;;;8.90;1.85;;;;;;;19.18;42.51;102230.38;4991236;28;20280;-72
2023/02/02 08:14:41;;;;;;;10.43;2.28;;;;;;;19.18;42.64;102238.28;4991777;28;20545;-70
2023/02/02 08:17:07;;;;;;;14.70;2.97;;;;;;;19.19;42.59;102231.19;4991117;28;20140;-69
2023/02/02 08:19:32;;;;;;;9.13;2.20;;;;;;;19.16;42.52;102229.59;4991793;28;20089;-71
2023/02/02 08:21:58;;;;;;;7.82;1.80;;;;;;;19.18;42.48;102232.13;4990919;28;20049;-73
2023/02/02 08:24:23;;;;;;;8.48;1.95;;;;;;;19.13;42.63;102235.06;4991629;28;20033;-70
2023/02/02 08:26:48;;;;;;;10.60;2.67;;;;;;;19.14;42.69;102243.88;4990909;28;20195;-71
2023/02/02 08:29:16;;;;;;;8.27;1.92;;;;;;;19.15;42.65;102245.53;4991999;28;20580;-71
2023/02/02 08:31:43;;;;;;;9.63;2.10;;;;;;;19.18;42.60;102243.56;4990526;28;20065;-71
2023/02/02 08:34:09;;;;;;;12.75;2.20;;;;;;;19.15;42.68;102242.91;4991362;28;20088;-73
2023/02/02 08:36:35;;;;;;;7.95;1.80;;;;;;;19.18;42.58;102259.44;4991142;28;20034;-70
2023/02/02 08:39:06;;;;;;;11.70;2.15;;;;;;;19.18;42.82;102242.72;4991785;28;20049;-68
2023/02/02 08:41:32;;;;;;;10.00;1.55;;;;;;;19.18;42.77;102253.28;4991666;28;20070;-70
2023/02/02 08:43:58;;;;;;;8.65;1.70;;;;;;;19.19;42.65;102249.69;4991685;28;20400;-71
2023/02/02 08:46:23;;;;;;;9.18;1.90;;;;;;;19.15;42.52;102250.84;4991306;28;20381;-72
2023/02/02 08:48:49;;;;;;;10.77;2.35;;;;;;;19.13;42.20;102263.31;4990395;28;20438;-72
2023/02/02 08:51:17;;;;;;;7.32;2.15;;;;;;;19.10;42.09;102271.41;4990738;28;20041;-71
2023/02/02 08:53:43;;;;;;;10.32;1.80;;;;;;;19.09;42.16;102285.56;4991394;28;20038;-71
2023/02/02 08:56:12;;;;;;;7.75;1.98;;;;;;;19.07;42.29;102290.94;4991344;28;20126;-71
2023/02/02 08:58:38;;;;;;;8.25;2.25;;;;;;;19.05;42.06;102290.19;4991626;28;20034;-69
2023/02/02 09:01:12;;;;;;;7.95;2.20;;;;;;;19.01;42.27;102300.13;4990903;28;20037;-72
2023/02/02 09:03:39;;;;;;;10.93;1.88;;;;;;;19.02;42.02;102303.59;4992104;28;20096;-69
2023/02/02 09:06:10;;;;;;;4.43;1.60;;;;;;;19.02;41.91;102306.25;4991196;28;20040;-69
2023/02/02 09:08:35;;;;;;;7.53;1.92;;;;;;;18.98;41.76;102307.41;4989869;28;20036;-69
2023/02/02 09:11:16;;;;;;;8.27;2.47;;;;;;;19.01;42.17;102317.78;4991414;28;20042;-72
2023/02/02 09:13:44;;;;;;;4.80;1.45;;;;;;;19.00;41.97;102331.91;4991061;28;20069;-70
2023/02/02 09:16:11;;;;;;;9.30;1.90;;;;;;;18.98;41.84;102339.94;4991279;28;20585;-70
2023/02/02 09:18:36;;;;;;;8.13;1.58;;;;;;;18.96;41.82;102330.41;4990994;28;20030;-69
2023/02/02 09:21:05;;;;;;;8.05;2.10;;;;;;;18.96;41.85;102333.03;4991937;28;20037;-69
2023/02/02 09:23:32;;;;;;;8.45;2.40;;;;;;;18.96;41.78;102331.28;4990063;28;20030;-73
2023/02/02 09:26:16;;;;;;;7.88;1.60;;;;;;;18.98;41.92;102328.53;4991760;28;20033;-74
2023/02/02 09:28:44;;;;;;;7.43;1.75;;;;;;;18.99;41.91;102317.88;4991557;28;20041;-71
2023/02/02 09:31:09;;;;;;;5.80;1.52;;;;;;;19.03;41.67;102337.84;4990533;28;20066;-69
2023/02/02 09:33:35;;;;;;;5.50;1.75;;;;;;;19.05;41.85;102337.75;4991274;28;20073;-73
2023/02/02 09:36:12;;;;;;;13.02;2.30;;;;;;;19.04;42.08;102338.69;4992129;28;20041;-69
2023/02/02 09:38:38;;;;;;;7.72;1.70;;;;;;;19.01;42.18;102342.41;4994834;28;20033;-70
2023/02/02 09:41:16;;;;;;;5.85;1.50;;;;;;;19.06;42.19;102354.47;4995298;28;20034;-71
2023/02/02 09:43:59;;;;;;;6.32;1.80;;;;;;;19.06;42.35;102351.81;4993530;28;20034;-70
2023/02/02 09:46:47;;;;;;;7.00;1.70;;;;;;;19.05;42.12;102355.41;4994164;28;20038;-71
2023/02/02 09:49:21;;;;;;;5.65;1.45;;;;;;;19.03;42.19;102358.16;4993437;28;20073;-68
2023/02/02 09:51:55;;;;;;;4.22;1.10;;;;;;;19.01;42.24;102355.59;4994141;28;20029;-70
2023/02/02 09:54:24;;;;;;;;;;;;;;;19.12;42.24;102365.53;4993565;28;20038;-70
2023/02/02 09:56:54;;;;;;;5.47;1.63;;;;;;;19.07;42.16;102372.03;4994275;28;19917;-71
2023/02/02 09:59:24;;;;;;;6.03;1.65;;;;;;;19.06;42.11;102375.59;4993560;28;20118;-70
2023/02/02 10:01:55;;;;;;;6.60;1.77;;;;;;;19.06;42.25;102386.16;4994024;28;20034;-70
2023/02/02 10:04:31;;;;;;;5.88;1.63;;;;;;;19.07;42.03;102391.34;4994265;28;20060;-70
2023/02/02 10:07:05;;;;;;;6.03;1.20;;;;;;;19.06;42.29;102383.53;4994406;28;20805;-69
2023/02/02 10:09:59;;;;;;;6.73;1.50;;;;;;;19.08;42.15;102389.59;4994596;28;20034;-74
2023/02/02 10:12:46;;;;;;;6.57;1.38;;;;;;;19.09;42.22;102386.84;4993099;28;20487;-73
2023/02/02 10:15:27;;;;;;;5.07;1.50;;;;;;;19.06;42.12;102378.25;4994407;28;20044;-69
2023/02/02 10:18:08;;;;;;;5.75;1.75;;;;;;;19.05;42.42;102374.75;4993818;28;20034;-71
2023/02/02 10:20:43;;;;;;;4.22;1.35;;;;;;;19.04;42.03;102373.03;4993452;28;20478;-70
2023/02/02 10:23:21;;;;;;;8.10;1.40;;;;;;;19.03;42.10;102374.84;4993174;28;20038;-70
2023/02/02 10:26:18;;;;;;;8.48;1.50;;;;;;;19.03;41.84;102377.50;4993629;28;20038;-70
2023/02/02 10:29:04;;;;;;;7.65;1.65;;;;;;;19.03;41.72;102376.66;4999892;28;20168;-71
2023/02/02 10:31:57;;;;;;;5.38;1.30;;;;;;;19.02;41.56;102386.34;4994112;28;20037;-69
2023/02/02 10:34:42;;;;;;;6.93;1.40;;;;;;;18.98;41.78;102376.94;4992537;28;20053;-73
2023/02/02 10:37:20;;;;;;;6.60;1.45;;;;;;;18.98;41.76;102386.66;4993471;28;20045;-68
2023/02/02 10:40:16;;;;;;;5.65;1.60;;;;;;;18.97;41.73;102384.94;4993382;28;20030;-69
2023/02/02 10:45:59;;;;;;;4.47;1.40;;;;;;;18.91;41.36;102375.59;4993380;28;20072;-69
2023/02/02 10:48:34;;;;;;;5.88;1.52;;;;;;;18.93;41.80;102378.13;4993066;28;20046;-70
2023/02/02 10:51:05;;;;;;;5.53;1.85;;;;;;;18.95;41.62;102386.84;4993305;28;20077;-69
2023/02/02 10:53:32;;;;;;;11.05;1.73;;;;;;;18.91;41.71;102393.25;4992599;28;20041;-69
2023/02/02 10:56:07;;;;;;;4.70;1.45;;;;;;;18.91;41.71;102394.06;4993012;28;20041;-70
2023/02/02 10:58:43;;;;;;;6.57;1.67;;;;;;;18.95;41.76;102407.97;4993170;28;20034;-69
2023/02/02 11:01:10;;;;;;;5.45;1.65;;;;;;;18.93;41.92;102412.47;4992521;28;20026;-69
2023/02/02 11:03:37;;;;;;;9.38;1.60;;;;;;;18.91;41.85;102404.66;4992592;28;20033;-69
2023/02/02 11:08:55;;;;;;;6.80;1.42;;;;;;;18.92;41.83;102401.06;4993215;28;20037;-70
2023/02/02 11:11:26;;;;;;;5.90;1.35;;;;;;;18.92;41.69;102402.88;4992822;28;20038;-70
2023/02/02 11:14:00;;;;;;;5.97;1.67;;;;;;;18.96;41.78;102413.16;4992817;28;20046;-66
2023/02/02 11:16:28;;;;;;;16.20;1.85;;;;;;;18.97;41.78;102406.91;4992386;28;20041;-67
2023/02/02 11:18:53;;;;;;;8.80;1.52;;;;;;;19.01;41.90;102410.25;4992489;28;20033;-68
2023/02/02 11:21:23;;;;;;;9.85;1.90;;;;;;;19.04;41.91;102412.69;4992847;28;20100;-70
2023/02/02 11:24:01;;;;;;;11.10;2.33;;;;;;;19.07;41.84;102403.72;4992297;28;20046;-69
2023/02/02 11:26:40;;;;;;;10.40;4.28;;;;;;;19.08;41.67;102398.34;4992366;28;20030;-70
2023/02/02 11:29:13;;;;;;;14.15;8.23;;;;;;;19.14;41.89;102403.25;4993131;28;20026;-70
2023/02/02 11:31:38;;;;;;;21.52;12.63;;;;;;;19.16;42.27;102387.31;4992652;28;20073;-70
2023/02/02 11:34:22;;;;;;;24.83;16.83;;;;;;;19.19;42.78;102390.63;4991931;28;20076;-72
2023/02/02 11:37:19;;;;;;;29.98;19.35;;;;;;;19.23;42.73;102401.00;4992046;28;20030;-68
2023/02/02 11:39:45;;;;;;;28.88;23.42;;;;;;;19.23;42.84;102404.47;4992906;28;20812;-68
2023/02/02 11:42:20;;;;;;;31.02;25.67;;;;;;;19.21;43.08;102393.16;4992302;28;20042;-72
2023/02/02 11:44:48;;;;;;;40.83;28.80;;;;;;;19.23;43.10;102395.72;4990821;28;20035;-69
2023/02/02 11:47:23;;;;;;;40.40;30.73;;;;;;;19.26;43.16;102403.47;4992439;28;20113;-68
2023/02/02 11:49:51;;;;;;;35.65;31.10;;;;;;;19.26;43.08;102396.38;4992222;28;20042;-68